sensor_id;sensor_type;location;lat;lon;timestamp;P1;durP1;ratioP1;P2;durP2;ratioP2
24644;SDS011;12780;45.502;9.146;2023-07-29T00:00:41;9.27;;;4.47;;
24644;SDS011;12780;45.502;9.146;2023-07-29T00:03:07;13.73;;;4.47;;
24644;SDS011;12780;45.502;9.146;2023-07-29T00:05:34;13.23;;;4.53;;
24644;SDS011;12780;45.502;9.146;2023-07-29T00:08:00;10.75;;;4.75;;
24644;SDS011;12780;45.502;9.146;2023-07-29T00:10:26;7.57;;;4.47;;
24644;SDS011;12780;45.502;9.146;2023-07-29T00:12:52;9.55;;;4.75;;
24644;SDS011;12780;45.502;9.146;2023-07-29T00:15:18;7.57;;;4.40;;
24644;SDS011;12780;45.502;9.146;2023-07-29T00:17:44;7.45;;;4.95;;
24644;SDS011;12780;45.502;9.146;2023-07-29T00:20:10;15.38;;;4.70;;
24644;SDS011;12780;45.502;9.146;2023-07-29T00:22:37;11.63;;;4.85;;
24644;SDS011;12780;45.502;9.146;2023-07-29T00:25:03;13.32;;;5.00;;
24644;SDS011;12780;45.502;9.146;2023-07-29T00:27:29;12.18;;;5.30;;
24644;SDS011;12780;45.502;9.146;2023-07-29T00:29:55;8.40;;;4.53;;
24644;SDS011;12780;45.502;9.146;2023-07-29T00:32:21;11.35;;;4.72;;
24644;SDS011;12780;45.502;9.146;2023-07-29T00:34:47;12.38;;;4.82;;
24644;SDS011;12780;45.502;9.146;2023-07-29T00:37:13;8.70;;;4.88;;
24644;SDS011;12780;45.502;9.146;2023-07-29T00:39:39;9.13;;;4.85;;
24644;SDS011;12780;45.502;9.146;2023-07-29T00:42:05;11.32;;;5.32;;
24644;SDS011;12780;45.502;9.146;2023-07-29T00:44:31;13.25;;;5.10;;
24644;SDS011;12780;45.502;9.146;2023-07-29T00:46:57;13.93;;;4.95;;
24644;SDS011;12780;45.502;9.146;2023-07-29T00:49:24;13.93;;;4.93;;
24644;SDS011;12780;45.502;9.146;2023-07-29T00:51:50;12.98;;;4.90;;
24644;SDS011;12780;45.502;9.146;2023-07-29T00:54:16;11.32;;;4.80;;
24644;SDS011;12780;45.502;9.146;2023-07-29T00:56:42;12.25;;;5.15;;
24644;SDS011;12780;45.502;9.146;2023-07-29T00:59:08;13.52;;;4.95;;
24644;SDS011;12780;45.502;9.146;2023-07-29T01:01:34;11.40;;;4.90;;
24644;SDS011;12780;45.502;9.146;2023-07-29T01:04:01;9.27;;;5.53;;
24644;SDS011;12780;45.502;9.146;2023-07-29T01:06:29;12.40;;;5.78;;
24644;SDS011;12780;45.502;9.146;2023-07-29T01:09:09;14.48;;;6.32;;
24644;SDS011;12780;45.502;9.146;2023-07-29T01:14:34;9.68;;;5.28;;
24644;SDS011;12780;45.502;9.146;2023-07-29T01:17:06;8.38;;;5.10;;
24644;SDS011;12780;45.502;9.146;2023-07-29T01:19:55;12.00;;;5.30;;
24644;SDS011;12780;45.502;9.146;2023-07-29T01:22:34;9.32;;;5.10;;
24644;SDS011;12780;45.502;9.146;2023-07-29T01:25:01;12.32;;;5.57;;
24644;SDS011;12780;45.502;9.146;2023-07-29T01:27:27;10.25;;;5.28;;
24644;SDS011;12780;45.502;9.146;2023-07-29T01:29:54;10.52;;;5.28;;
24644;SDS011;12780;45.502;9.146;2023-07-29T01:32:25;11.15;;;5.20;;
24644;SDS011;12780;45.502;9.146;2023-07-29T01:34:55;11.07;;;5.53;;
24644;SDS011;12780;45.502;9.146;2023-07-29T01:37:22;11.20;;;5.28;;
24644;SDS011;12780;45.502;9.146;2023-07-29T01:39:50;15.30;;;5.70;;
24644;SDS011;12780;45.502;9.146;2023-07-29T01:42:20;13.10;;;5.07;;
24644;SDS011;12780;45.502;9.146;2023-07-29T01:44:46;11.32;;;5.80;;
24644;SDS011;12780;45.502;9.146;2023-07-29T01:47:12;13.10;;;5.57;;
24644;SDS011;12780;45.502;9.146;2023-07-29T01:49:39;14.40;;;5.63;;
24644;SDS011;12780;45.502;9.146;2023-07-29T01:52:05;9.88;;;5.60;;
24644;SDS011;12780;45.502;9.146;2023-07-29T01:54:31;11.23;;;4.82;;
24644;SDS011;12780;45.502;9.146;2023-07-29T01:56:57;10.13;;;5.45;;
24644;SDS011;12780;45.502;9.146;2023-07-29T01:59:23;16.92;;;6.15;;
24644;SDS011;12780;45.502;9.146;2023-07-29T02:01:49;13.85;;;5.85;;
24644;SDS011;12780;45.502;9.146;2023-07-29T02:04:15;12.05;;;5.95;;
24644;SDS011;12780;45.502;9.146;2023-07-29T02:06:41;9.55;;;5.35;;
24644;SDS011;12780;45.502;9.146;2023-07-29T02:09:07;14.45;;;5.97;;
24644;SDS011;12780;45.502;9.146;2023-07-29T02:11:33;11.75;;;6.07;;
24644;SDS011;12780;45.502;9.146;2023-07-29T02:13:59;15.10;;;5.40;;
24644;SDS011;12780;45.502;9.146;2023-07-29T02:16:28;11.73;;;5.90;;
24644;SDS011;12780;45.502;9.146;2023-07-29T02:18:54;10.20;;;5.97;;
24644;SDS011;12780;45.502;9.146;2023-07-29T02:21:20;10.43;;;5.55;;
24644;SDS011;12780;45.502;9.146;2023-07-29T02:23:46;9.63;;;5.00;;
24644;SDS011;12780;45.502;9.146;2023-07-29T02:26:12;11.10;;;5.55;;
24644;SDS011;12780;45.502;9.146;2023-07-29T02:28:38;11.50;;;5.40;;
24644;SDS011;12780;45.502;9.146;2023-07-29T02:33:42;9.35;;;5.10;;
24644;SDS011;12780;45.502;9.146;2023-07-29T02:36:09;11.50;;;5.20;;
24644;SDS011;12780;45.502;9.146;2023-07-29T02:38:35;11.73;;;5.40;;
24644;SDS011;12780;45.502;9.146;2023-07-29T02:41:01;12.07;;;6.22;;
24644;SDS011;12780;45.502;9.146;2023-07-29T02:43:27;10.77;;;5.53;;
24644;SDS011;12780;45.502;9.146;2023-07-29T02:45:54;13.02;;;5.82;;
24644;SDS011;12780;45.502;9.146;2023-07-29T02:48:20;15.13;;;5.57;;
24644;SDS011;12780;45.502;9.146;2023-07-29T02:50:46;11.02;;;5.53;;
24644;SDS011;12780;45.502;9.146;2023-07-29T02:53:12;15.02;;;5.63;;
24644;SDS011;12780;45.502;9.146;2023-07-29T02:55:41;13.27;;;5.63;;
24644;SDS011;12780;45.502;9.146;2023-07-29T02:58:08;10.63;;;5.70;;
24644;SDS011;12780;45.502;9.146;2023-07-29T03:00:33;12.02;;;5.68;;
24644;SDS011;12780;45.502;9.146;2023-07-29T03:03:00;12.15;;;5.43;;
24644;SDS011;12780;45.502;9.146;2023-07-29T03:05:27;14.40;;;5.97;;
24644;SDS011;12780;45.502;9.146;2023-07-29T03:07:53;12.38;;;6.10;;
24644;SDS011;12780;45.502;9.146;2023-07-29T03:10:19;9.82;;;5.32;;
24644;SDS011;12780;45.502;9.146;2023-07-29T03:12:45;11.57;;;5.47;;
24644;SDS011;12780;45.502;9.146;2023-07-29T03:15:12;10.07;;;5.63;;
24644;SDS011;12780;45.502;9.146;2023-07-29T03:17:38;10.30;;;5.93;;
24644;SDS011;12780;45.502;9.146;2023-07-29T03:20:04;10.95;;;5.47;;
24644;SDS011;12780;45.502;9.146;2023-07-29T03:22:30;14.90;;;5.72;;
24644;SDS011;12780;45.502;9.146;2023-07-29T03:24:56;12.30;;;5.45;;
24644;SDS011;12780;45.502;9.146;2023-07-29T03:27:22;12.40;;;5.38;;
24644;SDS011;12780;45.502;9.146;2023-07-29T03:29:48;9.90;;;5.32;;
24644;SDS011;12780;45.502;9.146;2023-07-29T03:32:14;9.38;;;5.40;;
24644;SDS011;12780;45.502;9.146;2023-07-29T03:34:40;9.85;;;5.47;;
24644;SDS011;12780;45.502;9.146;2023-07-29T03:37:06;10.48;;;5.25;;
24644;SDS011;12780;45.502;9.146;2023-07-29T03:39:32;10.98;;;5.28;;
24644;SDS011;12780;45.502;9.146;2023-07-29T03:41:59;11.73;;;5.25;;
24644;SDS011;12780;45.502;9.146;2023-07-29T03:44:24;10.52;;;5.40;;
24644;SDS011;12780;45.502;9.146;2023-07-29T03:46:51;16.48;;;5.50;;
24644;SDS011;12780;45.502;9.146;2023-07-29T03:49:17;8.55;;;5.22;;
24644;SDS011;12780;45.502;9.146;2023-07-29T03:51:43;13.10;;;5.40;;
24644;SDS011;12780;45.502;9.146;2023-07-29T03:54:09;10.32;;;5.03;;
24644;SDS011;12780;45.502;9.146;2023-07-29T03:56:35;12.38;;;4.85;;
24644;SDS011;12780;45.502;9.146;2023-07-29T03:59:05;9.77;;;4.95;;
24644;SDS011;12780;45.502;9.146;2023-07-29T04:01:31;9.95;;;5.50;;
24644;SDS011;12780;45.502;9.146;2023-07-29T04:03:57;11.00;;;4.85;;
24644;SDS011;12780;45.502;9.146;2023-07-29T04:06:24;9.27;;;5.40;;
24644;SDS011;12780;45.502;9.146;2023-07-29T04:08:50;12.52;;;5.15;;
24644;SDS011;12780;45.502;9.146;2023-07-29T04:11:16;8.38;;;4.97;;
24644;SDS011;12780;45.502;9.146;2023-07-29T04:13:42;11.43;;;4.97;;
24644;SDS011;12780;45.502;9.146;2023-07-29T04:16:08;8.35;;;4.90;;
24644;SDS011;12780;45.502;9.146;2023-07-29T04:18:34;8.68;;;5.20;;
24644;SDS011;12780;45.502;9.146;2023-07-29T04:21:00;10.25;;;4.78;;
24644;SDS011;12780;45.502;9.146;2023-07-29T04:23:26;8.77;;;5.00;;
24644;SDS011;12780;45.502;9.146;2023-07-29T04:25:52;11.18;;;5.47;;
24644;SDS011;12780;45.502;9.146;2023-07-29T04:28:18;10.77;;;4.65;;
24644;SDS011;12780;45.502;9.146;2023-07-29T04:30:45;11.50;;;4.60;;
24644;SDS011;12780;45.502;9.146;2023-07-29T04:33:11;6.90;;;4.32;;
24644;SDS011;12780;45.502;9.146;2023-07-29T04:35:37;13.77;;;5.38;;
24644;SDS011;12780;45.502;9.146;2023-07-29T04:38:03;11.27;;;5.20;;
24644;SDS011;12780;45.502;9.146;2023-07-29T04:40:32;8.30;;;4.78;;
24644;SDS011;12780;45.502;9.146;2023-07-29T04:43:00;15.65;;;5.10;;
24644;SDS011;12780;45.502;9.146;2023-07-29T04:45:29;9.70;;;4.45;;
24644;SDS011;12780;45.502;9.146;2023-07-29T04:47:55;13.95;;;5.10;;
24644;SDS011;12780;45.502;9.146;2023-07-29T04:50:21;9.13;;;4.80;;
24644;SDS011;12780;45.502;9.146;2023-07-29T04:52:48;7.70;;;4.80;;
24644;SDS011;12780;45.502;9.146;2023-07-29T04:55:14;12.43;;;5.07;;
24644;SDS011;12780;45.502;9.146;2023-07-29T04:57:40;9.57;;;4.97;;
24644;SDS011;12780;45.502;9.146;2023-07-29T05:00:06;11.27;;;5.10;;
24644;SDS011;12780;45.502;9.146;2023-07-29T05:02:32;11.27;;;5.00;;
24644;SDS011;12780;45.502;9.146;2023-07-29T05:04:58;10.45;;;4.70;;
24644;SDS011;12780;45.502;9.146;2023-07-29T05:07:24;10.93;;;4.72;;
24644;SDS011;12780;45.502;9.146;2023-07-29T05:09:50;9.35;;;4.90;;
24644;SDS011;12780;45.502;9.146;2023-07-29T05:12:16;8.77;;;4.43;;
24644;SDS011;12780;45.502;9.146;2023-07-29T05:14:42;19.92;;;4.88;;
24644;SDS011;12780;45.502;9.146;2023-07-29T05:17:08;10.57;;;6.00;;
24644;SDS011;12780;45.502;9.146;2023-07-29T05:19:34;10.50;;;5.28;;
24644;SDS011;12780;45.502;9.146;2023-07-29T05:22:00;14.05;;;5.22;;
24644;SDS011;12780;45.502;9.146;2023-07-29T05:24:26;12.52;;;4.75;;
24644;SDS011;12780;45.502;9.146;2023-07-29T05:26:52;10.48;;;4.75;;
24644;SDS011;12780;45.502;9.146;2023-07-29T05:29:18;11.30;;;4.60;;
24644;SDS011;12780;45.502;9.146;2023-07-29T05:31:44;13.05;;;4.15;;
24644;SDS011;12780;45.502;9.146;2023-07-29T05:34:10;13.40;;;4.53;;
24644;SDS011;12780;45.502;9.146;2023-07-29T05:36:36;9.80;;;4.70;;
24644;SDS011;12780;45.502;9.146;2023-07-29T05:39:04;12.80;;;4.97;;
24644;SDS011;12780;45.502;9.146;2023-07-29T05:41:30;11.43;;;5.15;;
24644;SDS011;12780;45.502;9.146;2023-07-29T05:43:56;12.65;;;4.70;;
24644;SDS011;12780;45.502;9.146;2023-07-29T05:46:22;11.90;;;4.30;;
24644;SDS011;12780;45.502;9.146;2023-07-29T05:48:48;10.50;;;4.60;;
24644;SDS011;12780;45.502;9.146;2023-07-29T05:51:14;9.43;;;4.38;;
24644;SDS011;12780;45.502;9.146;2023-07-29T05:53:40;10.55;;;4.57;;
24644;SDS011;12780;45.502;9.146;2023-07-29T05:56:06;12.70;;;4.25;;
24644;SDS011;12780;45.502;9.146;2023-07-29T05:58:32;12.88;;;5.07;;
24644;SDS011;12780;45.502;9.146;2023-07-29T06:00:58;10.38;;;4.10;;
24644;SDS011;12780;45.502;9.146;2023-07-29T06:03:24;12.85;;;4.50;;
24644;SDS011;12780;45.502;9.146;2023-07-29T06:05:50;8.25;;;4.13;;
24644;SDS011;12780;45.502;9.146;2023-07-29T06:08:16;9.10;;;3.90;;
24644;SDS011;12780;45.502;9.146;2023-07-29T06:10:42;6.65;;;3.88;;
24644;SDS011;12780;45.502;9.146;2023-07-29T06:13:08;12.18;;;3.92;;
24644;SDS011;12780;45.502;9.146;2023-07-29T06:15:34;12.75;;;4.00;;
24644;SDS011;12780;45.502;9.146;2023-07-29T06:18:00;8.18;;;4.00;;
24644;SDS011;12780;45.502;9.146;2023-07-29T06:20:26;9.77;;;4.13;;
24644;SDS011;12780;45.502;9.146;2023-07-29T06:22:52;9.07;;;3.92;;
24644;SDS011;12780;45.502;9.146;2023-07-29T06:25:18;11.98;;;3.80;;
24644;SDS011;12780;45.502;9.146;2023-07-29T06:27:44;11.95;;;3.65;;
24644;SDS011;12780;45.502;9.146;2023-07-29T06:30:10;9.75;;;4.05;;
24644;SDS011;12780;45.502;9.146;2023-07-29T06:32:36;15.45;;;3.58;;
24644;SDS011;12780;45.502;9.146;2023-07-29T06:35:02;10.88;;;4.22;;
24644;SDS011;12780;45.502;9.146;2023-07-29T06:37:28;12.90;;;3.70;;
24644;SDS011;12780;45.502;9.146;2023-07-29T06:39:54;8.35;;;3.88;;
24644;SDS011;12780;45.502;9.146;2023-07-29T06:42:20;7.18;;;3.72;;
24644;SDS011;12780;45.502;9.146;2023-07-29T06:44:47;5.95;;;3.13;;
24644;SDS011;12780;45.502;9.146;2023-07-29T06:47:13;11.13;;;3.97;;
24644;SDS011;12780;45.502;9.146;2023-07-29T06:49:39;9.27;;;3.40;;
24644;SDS011;12780;45.502;9.146;2023-07-29T06:52:05;8.27;;;3.65;;
24644;SDS011;12780;45.502;9.146;2023-07-29T06:54:31;8.02;;;3.38;;
24644;SDS011;12780;45.502;9.146;2023-07-29T06:56:57;11.80;;;3.55;;
24644;SDS011;12780;45.502;9.146;2023-07-29T06:59:24;6.65;;;3.70;;
24644;SDS011;12780;45.502;9.146;2023-07-29T07:01:53;14.05;;;3.80;;
24644;SDS011;12780;45.502;9.146;2023-07-29T07:04:19;7.43;;;3.33;;
24644;SDS011;12780;45.502;9.146;2023-07-29T07:06:45;12.02;;;3.10;;
24644;SDS011;12780;45.502;9.146;2023-07-29T07:09:11;8.82;;;3.42;;
24644;SDS011;12780;45.502;9.146;2023-07-29T07:11:37;10.40;;;3.45;;
24644;SDS011;12780;45.502;9.146;2023-07-29T07:14:03;10.65;;;3.40;;
24644;SDS011;12780;45.502;9.146;2023-07-29T07:16:29;8.95;;;3.10;;
24644;SDS011;12780;45.502;9.146;2023-07-29T07:18:55;9.77;;;3.60;;
24644;SDS011;12780;45.502;9.146;2023-07-29T07:21:21;11.70;;;3.70;;
24644;SDS011;12780;45.502;9.146;2023-07-29T07:23:49;7.38;;;3.47;;
24644;SDS011;12780;45.502;9.146;2023-07-29T07:26:15;9.40;;;3.45;;
24644;SDS011;12780;45.502;9.146;2023-07-29T07:28:41;12.50;;;3.95;;
24644;SDS011;12780;45.502;9.146;2023-07-29T07:31:07;5.85;;;3.50;;
24644;SDS011;12780;45.502;9.146;2023-07-29T07:33:33;7.20;;;3.72;;
24644;SDS011;12780;45.502;9.146;2023-07-29T07:35:59;10.05;;;3.50;;
24644;SDS011;12780;45.502;9.146;2023-07-29T07:38:25;8.00;;;3.15;;
24644;SDS011;12780;45.502;9.146;2023-07-29T07:40:54;9.90;;;4.00;;
24644;SDS011;12780;45.502;9.146;2023-07-29T07:43:21;7.72;;;3.85;;
24644;SDS011;12780;45.502;9.146;2023-07-29T07:45:47;10.90;;;3.60;;
24644;SDS011;12780;45.502;9.146;2023-07-29T07:48:13;7.85;;;3.25;;
24644;SDS011;12780;45.502;9.146;2023-07-29T07:50:41;10.95;;;3.00;;
24644;SDS011;12780;45.502;9.146;2023-07-29T07:53:07;7.00;;;3.15;;
24644;SDS011;12780;45.502;9.146;2023-07-29T07:55:33;8.27;;;3.50;;
24644;SDS011;12780;45.502;9.146;2023-07-29T07:57:59;10.10;;;3.53;;
24644;SDS011;12780;45.502;9.146;2023-07-29T08:00:25;10.32;;;3.38;;
24644;SDS011;12780;45.502;9.146;2023-07-29T08:02:51;9.38;;;3.63;;
24644;SDS011;12780;45.502;9.146;2023-07-29T08:05:18;7.55;;;3.38;;
24644;SDS011;12780;45.502;9.146;2023-07-29T08:07:44;8.27;;;3.42;;
24644;SDS011;12780;45.502;9.146;2023-07-29T08:10:10;6.43;;;3.33;;
24644;SDS011;12780;45.502;9.146;2023-07-29T08:12:36;10.35;;;3.30;;
24644;SDS011;12780;45.502;9.146;2023-07-29T08:15:02;12.15;;;3.85;;
24644;SDS011;12780;45.502;9.146;2023-07-29T08:17:28;7.00;;;3.60;;
24644;SDS011;12780;45.502;9.146;2023-07-29T08:19:54;6.35;;;3.47;;
24644;SDS011;12780;45.502;9.146;2023-07-29T08:22:20;7.50;;;3.38;;
24644;SDS011;12780;45.502;9.146;2023-07-29T08:24:46;9.95;;;3.95;;
24644;SDS011;12780;45.502;9.146;2023-07-29T08:27:12;7.70;;;3.47;;
24644;SDS011;12780;45.502;9.146;2023-07-29T08:29:38;11.82;;;3.72;;
24644;SDS011;12780;45.502;9.146;2023-07-29T08:32:04;11.25;;;3.83;;
24644;SDS011;12780;45.502;9.146;2023-07-29T08:34:30;7.78;;;3.90;;
24644;SDS011;12780;45.502;9.146;2023-07-29T08:36:56;9.40;;;3.40;;
24644;SDS011;12780;45.502;9.146;2023-07-29T08:39:22;11.40;;;3.47;;
24644;SDS011;12780;45.502;9.146;2023-07-29T08:42:00;8.68;;;4.20;;
24644;SDS011;12780;45.502;9.146;2023-07-29T08:44:30;9.02;;;3.70;;
24644;SDS011;12780;45.502;9.146;2023-07-29T08:46:56;9.00;;;3.80;;
24644;SDS011;12780;45.502;9.146;2023-07-29T08:49:25;8.80;;;3.78;;
24644;SDS011;12780;45.502;9.146;2023-07-29T08:51:53;9.10;;;4.30;;
24644;SDS011;12780;45.502;9.146;2023-07-29T08:54:19;7.80;;;3.80;;
24644;SDS011;12780;45.502;9.146;2023-07-29T08:56:45;8.73;;;4.25;;
24644;SDS011;12780;45.502;9.146;2023-07-29T08:59:12;11.80;;;3.70;;
24644;SDS011;12780;45.502;9.146;2023-07-29T09:01:38;10.60;;;4.05;;
24644;SDS011;12780;45.502;9.146;2023-07-29T09:04:04;10.65;;;3.50;;
24644;SDS011;12780;45.502;9.146;2023-07-29T09:06:31;8.23;;;3.75;;
24644;SDS011;12780;45.502;9.146;2023-07-29T09:08:58;10.77;;;3.60;;
24644;SDS011;12780;45.502;9.146;2023-07-29T09:11:24;6.75;;;3.67;;
24644;SDS011;12780;45.502;9.146;2023-07-29T09:13:50;11.88;;;4.15;;
24644;SDS011;12780;45.502;9.146;2023-07-29T09:16:17;8.52;;;4.25;;
24644;SDS011;12780;45.502;9.146;2023-07-29T09:18:43;9.48;;;3.85;;
24644;SDS011;12780;45.502;9.146;2023-07-29T09:21:09;6.43;;;4.25;;
24644;SDS011;12780;45.502;9.146;2023-07-29T09:23:42;10.35;;;4.32;;
24644;SDS011;12780;45.502;9.146;2023-07-29T09:26:08;9.02;;;4.40;;
24644;SDS011;12780;45.502;9.146;2023-07-29T09:28:34;8.80;;;3.80;;
24644;SDS011;12780;45.502;9.146;2023-07-29T09:31:01;9.63;;;4.32;;
24644;SDS011;12780;45.502;9.146;2023-07-29T09:33:28;11.68;;;4.75;;
24644;SDS011;12780;45.502;9.146;2023-07-29T09:35:54;8.05;;;4.25;;
24644;SDS011;12780;45.502;9.146;2023-07-29T09:38:25;10.80;;;4.40;;
24644;SDS011;12780;45.502;9.146;2023-07-29T09:40:51;9.40;;;4.38;;
24644;SDS011;12780;45.502;9.146;2023-07-29T09:43:20;14.27;;;4.28;;
24644;SDS011;12780;45.502;9.146;2023-07-29T09:45:51;9.27;;;3.97;;
24644;SDS011;12780;45.502;9.146;2023-07-29T09:48:19;10.45;;;4.30;;
24644;SDS011;12780;45.502;9.146;2023-07-29T09:50:46;9.85;;;4.13;;
24644;SDS011;12780;45.502;9.146;2023-07-29T09:53:12;9.50;;;3.50;;
24644;SDS011;12780;45.502;9.146;2023-07-29T09:55:39;7.78;;;3.92;;
24644;SDS011;12780;45.502;9.146;2023-07-29T09:58:11;11.60;;;3.95;;
24644;SDS011;12780;45.502;9.146;2023-07-29T10:00:37;9.27;;;3.72;;
24644;SDS011;12780;45.502;9.146;2023-07-29T10:03:05;6.90;;;3.75;;
24644;SDS011;12780;45.502;9.146;2023-07-29T10:05:32;10.68;;;3.80;;
24644;SDS011;12780;45.502;9.146;2023-07-29T10:08:04;10.05;;;3.90;;
24644;SDS011;12780;45.502;9.146;2023-07-29T10:10:30;10.55;;;3.88;;
24644;SDS011;12780;45.502;9.146;2023-07-29T10:12:56;8.52;;;4.20;;
24644;SDS011;12780;45.502;9.146;2023-07-29T10:15:22;10.27;;;4.13;;
24644;SDS011;12780;45.502;9.146;2023-07-29T10:17:49;9.55;;;3.72;;
24644;SDS011;12780;45.502;9.146;2023-07-29T10:20:15;11.23;;;4.20;;
24644;SDS011;12780;45.502;9.146;2023-07-29T10:22:42;7.72;;;3.08;;
24644;SDS011;12780;45.502;9.146;2023-07-29T10:25:10;11.45;;;4.45;;
24644;SDS011;12780;45.502;9.146;2023-07-29T10:27:49;11.20;;;3.65;;
24644;SDS011;12780;45.502;9.146;2023-07-29T10:30:18;9.45;;;3.42;;
24644;SDS011;12780;45.502;9.146;2023-07-29T10:32:44;10.52;;;3.40;;
24644;SDS011;12780;45.502;9.146;2023-07-29T10:35:11;6.72;;;3.55;;
24644;SDS011;12780;45.502;9.146;2023-07-29T10:37:37;7.72;;;3.53;;
24644;SDS011;12780;45.502;9.146;2023-07-29T10:40:06;6.25;;;3.50;;
24644;SDS011;12780;45.502;9.146;2023-07-29T10:42:32;11.57;;;3.78;;
24644;SDS011;12780;45.502;9.146;2023-07-29T10:44:58;9.55;;;3.42;;
24644;SDS011;12780;45.502;9.146;2023-07-29T10:47:25;7.90;;;3.67;;
24644;SDS011;12780;45.502;9.146;2023-07-29T10:49:56;8.13;;;3.45;;
24644;SDS011;12780;45.502;9.146;2023-07-29T10:52:39;15.20;;;3.90;;
24644;SDS011;12780;45.502;9.146;2023-07-29T10:55:23;7.78;;;3.45;;
24644;SDS011;12780;45.502;9.146;2023-07-29T10:57:50;8.85;;;3.25;;
24644;SDS011;12780;45.502;9.146;2023-07-29T11:00:19;8.57;;;3.35;;
24644;SDS011;12780;45.502;9.146;2023-07-29T11:02:56;7.88;;;3.80;;
24644;SDS011;12780;45.502;9.146;2023-07-29T11:05:22;8.90;;;3.38;;
24644;SDS011;12780;45.502;9.146;2023-07-29T11:07:48;7.50;;;3.35;;
24644;SDS011;12780;45.502;9.146;2023-07-29T11:10:15;9.50;;;3.40;;
24644;SDS011;12780;45.502;9.146;2023-07-29T11:17:41;6.45;;;3.08;;
24644;SDS011;12780;45.502;9.146;2023-07-29T11:20:07;7.35;;;3.30;;
24644;SDS011;12780;45.502;9.146;2023-07-29T11:22:34;8.10;;;3.15;;
24644;SDS011;12780;45.502;9.146;2023-07-29T11:25:00;7.47;;;3.90;;
24644;SDS011;12780;45.502;9.146;2023-07-29T11:27:26;9.05;;;3.50;;
24644;SDS011;12780;45.502;9.146;2023-07-29T11:30:02;9.43;;;3.90;;
24644;SDS011;12780;45.502;9.146;2023-07-29T11:32:30;10.52;;;2.90;;
24644;SDS011;12780;45.502;9.146;2023-07-29T11:34:57;6.13;;;3.10;;
24644;SDS011;12780;45.502;9.146;2023-07-29T11:37:23;6.70;;;2.80;;
24644;SDS011;12780;45.502;9.146;2023-07-29T11:39:49;8.25;;;3.20;;
24644;SDS011;12780;45.502;9.146;2023-07-29T11:42:16;6.90;;;3.08;;
24644;SDS011;12780;45.502;9.146;2023-07-29T11:44:42;10.77;;;3.65;;
24644;SDS011;12780;45.502;9.146;2023-07-29T11:47:09;9.45;;;3.33;;
24644;SDS011;12780;45.502;9.146;2023-07-29T11:49:35;7.45;;;3.45;;
24644;SDS011;12780;45.502;9.146;2023-07-29T11:52:02;8.63;;;3.17;;
24644;SDS011;12780;45.502;9.146;2023-07-29T11:54:28;7.78;;;3.83;;
24644;SDS011;12780;45.502;9.146;2023-07-29T11:56:57;8.98;;;3.53;;
24644;SDS011;12780;45.502;9.146;2023-07-29T11:59:23;5.97;;;3.45;;
24644;SDS011;12780;45.502;9.146;2023-07-29T12:01:49;7.97;;;3.45;;
24644;SDS011;12780;45.502;9.146;2023-07-29T12:04:16;8.07;;;3.47;;
24644;SDS011;12780;45.502;9.146;2023-07-29T12:06:42;12.65;;;3.65;;
24644;SDS011;12780;45.502;9.146;2023-07-29T12:09:08;9.20;;;3.47;;
24644;SDS011;12780;45.502;9.146;2023-07-29T12:11:34;6.38;;;3.20;;
24644;SDS011;12780;45.502;9.146;2023-07-29T12:14:01;10.85;;;3.00;;
24644;SDS011;12780;45.502;9.146;2023-07-29T12:16:27;7.75;;;3.85;;
24644;SDS011;12780;45.502;9.146;2023-07-29T12:19:00;6.78;;;2.92;;
24644;SDS011;12780;45.502;9.146;2023-07-29T12:21:27;9.38;;;3.97;;
24644;SDS011;12780;45.502;9.146;2023-07-29T12:23:54;6.20;;;3.25;;
24644;SDS011;12780;45.502;9.146;2023-07-29T12:26:20;7.32;;;3.58;;
24644;SDS011;12780;45.502;9.146;2023-07-29T12:28:46;11.25;;;3.13;;
24644;SDS011;12780;45.502;9.146;2023-07-29T12:31:12;7.05;;;3.45;;
24644;SDS011;12780;45.502;9.146;2023-07-29T12:33:38;5.82;;;3.30;;
24644;SDS011;12780;45.502;9.146;2023-07-29T12:36:07;8.30;;;3.85;;
24644;SDS011;12780;45.502;9.146;2023-07-29T12:38:33;10.60;;;3.45;;
24644;SDS011;12780;45.502;9.146;2023-07-29T12:40:59;6.70;;;3.35;;
24644;SDS011;12780;45.502;9.146;2023-07-29T12:43:25;9.25;;;3.22;;
24644;SDS011;12780;45.502;9.146;2023-07-29T12:45:51;6.28;;;3.13;;
24644;SDS011;12780;45.502;9.146;2023-07-29T12:48:17;5.22;;;3.20;;
24644;SDS011;12780;45.502;9.146;2023-07-29T12:50:44;6.85;;;3.10;;
24644;SDS011;12780;45.502;9.146;2023-07-29T12:53:09;8.80;;;3.47;;
24644;SDS011;12780;45.502;9.146;2023-07-29T12:55:36;8.93;;;3.60;;
24644;SDS011;12780;45.502;9.146;2023-07-29T12:58:02;7.10;;;3.03;;
24644;SDS011;12780;45.502;9.146;2023-07-29T13:00:28;11.27;;;3.60;;
24644;SDS011;12780;45.502;9.146;2023-07-29T13:02:54;5.65;;;3.15;;
24644;SDS011;12780;45.502;9.146;2023-07-29T13:05:20;9.85;;;3.80;;
24644;SDS011;12780;45.502;9.146;2023-07-29T13:07:47;8.18;;;3.25;;
24644;SDS011;12780;45.502;9.146;2023-07-29T13:10:13;6.10;;;3.20;;
24644;SDS011;12780;45.502;9.146;2023-07-29T13:12:39;7.57;;;3.20;;
24644;SDS011;12780;45.502;9.146;2023-07-29T13:15:05;7.97;;;3.38;;
24644;SDS011;12780;45.502;9.146;2023-07-29T13:17:32;13.18;;;3.60;;
24644;SDS011;12780;45.502;9.146;2023-07-29T13:19:58;8.18;;;3.17;;
24644;SDS011;12780;45.502;9.146;2023-07-29T13:22:25;8.63;;;3.65;;
24644;SDS011;12780;45.502;9.146;2023-07-29T13:24:51;7.82;;;3.47;;
24644;SDS011;12780;45.502;9.146;2023-07-29T13:27:17;6.57;;;3.30;;
24644;SDS011;12780;45.502;9.146;2023-07-29T13:29:43;8.88;;;3.38;;
24644;SDS011;12780;45.502;9.146;2023-07-29T13:32:09;9.35;;;3.60;;
24644;SDS011;12780;45.502;9.146;2023-07-29T13:34:35;7.05;;;3.17;;
24644;SDS011;12780;45.502;9.146;2023-07-29T13:37:01;7.45;;;3.60;;
24644;SDS011;12780;45.502;9.146;2023-07-29T13:39:27;8.52;;;3.80;;
24644;SDS011;12780;45.502;9.146;2023-07-29T13:41:53;6.75;;;3.53;;
24644;SDS011;12780;45.502;9.146;2023-07-29T13:44:20;6.47;;;3.10;;
24644;SDS011;12780;45.502;9.146;2023-07-29T13:46:46;6.03;;;2.97;;
24644;SDS011;12780;45.502;9.146;2023-07-29T13:49:12;11.27;;;3.65;;
24644;SDS011;12780;45.502;9.146;2023-07-29T13:51:38;9.13;;;3.25;;
24644;SDS011;12780;45.502;9.146;2023-07-29T13:54:04;4.93;;;3.38;;
24644;SDS011;12780;45.502;9.146;2023-07-29T13:56:30;6.50;;;3.50;;
24644;SDS011;12780;45.502;9.146;2023-07-29T13:58:56;7.50;;;3.30;;
24644;SDS011;12780;45.502;9.146;2023-07-29T14:01:22;7.15;;;3.33;;
24644;SDS011;12780;45.502;9.146;2023-07-29T14:03:48;8.20;;;3.50;;
24644;SDS011;12780;45.502;9.146;2023-07-29T14:06:16;9.25;;;3.35;;
24644;SDS011;12780;45.502;9.146;2023-07-29T14:08:42;7.50;;;3.55;;
24644;SDS011;12780;45.502;9.146;2023-07-29T14:11:08;8.40;;;3.22;;
24644;SDS011;12780;45.502;9.146;2023-07-29T14:13:34;7.07;;;3.38;;
24644;SDS011;12780;45.502;9.146;2023-07-29T14:16:03;5.18;;;3.35;;
24644;SDS011;12780;45.502;9.146;2023-07-29T14:18:29;10.68;;;3.40;;
24644;SDS011;12780;45.502;9.146;2023-07-29T14:20:55;7.38;;;3.30;;
24644;SDS011;12780;45.502;9.146;2023-07-29T14:23:21;8.55;;;3.28;;
24644;SDS011;12780;45.502;9.146;2023-07-29T14:25:47;9.25;;;3.42;;
24644;SDS011;12780;45.502;9.146;2023-07-29T14:28:13;5.50;;;3.20;;
24644;SDS011;12780;45.502;9.146;2023-07-29T14:30:39;5.45;;;3.40;;
24644;SDS011;12780;45.502;9.146;2023-07-29T14:33:06;11.43;;;3.72;;
24644;SDS011;12780;45.502;9.146;2023-07-29T14:35:32;7.13;;;3.55;;
24644;SDS011;12780;45.502;9.146;2023-07-29T14:37:58;13.07;;;4.03;;
24644;SDS011;12780;45.502;9.146;2023-07-29T14:40:24;5.88;;;3.40;;
24644;SDS011;12780;45.502;9.146;2023-07-29T14:42:50;6.57;;;3.65;;
24644;SDS011;12780;45.502;9.146;2023-07-29T14:45:16;6.43;;;3.80;;
24644;SDS011;12780;45.502;9.146;2023-07-29T14:47:42;8.18;;;3.90;;